Lewisville, TX

5:23 PM CDT on July 30, 2016 (GMT -0500)
Westchester | | Change Station

Elev 646 ft 33.04 °N, 97.07 °W | Updated 1 second ago

Partly Cloudy
Partly Cloudy
100.6 °F
Feels Like 107 °F
N
6.9
Wind Variable Wind from South
Gusts 13.0 mph

Today
High -- | Low -- °F
--% Chance of Precip.
Yesterday
High -- | Low -- °F
Precip. -- in
Pressure 29.88 in
Visibility 10.0 miles
Clouds Few 7000 ft
Few 30000 ft
Heat Index 107 °F
Dew Point 69 °F
Humidity 36%
Rainfall 0.00 in
Snow Depth Not available.
6:40 AM 8:28 PM
Waning Crescent, 10% visible
METAR KDFW 302153Z 15012G17KT 10SM FEW070 FEW300 37/18 A2991 RMK AO2 SLP117 CB DSNT NE MOV SE T03720183
Pressure 29.88 in
Visibility 10.0 miles
Clouds Few 7000 ft
Few 30000 ft
Heat Index 107 °F
Dew Point 69 °F
Humidity 36%
Rainfall 0.00 in
Snow Depth Not available.
6:40 AM 8:28 PM
Waning Crescent, 10% visible
METAR KDFW 302153Z 15012G17KT 10SM FEW070 FEW300 37/18 A2991 RMK AO2 SLP117 CB DSNT NE MOV SE T03720183

10-Day Weather Forecast

Almanac

Astronomy

Jul. 30, 2016 Rise Set
Actual Time
Civil Twilight
Nautical Twilight
Astronomical Twilight
Moon
Length of Visible Light
Length of Day
Tomorrow will be .
, % of the Moon is Illuminated

Today's Extremes

State Highs State Lows

Community

WunderPhotos

Upload Photos

1,928,663 photos uploaded!

WunderBlog® & News

Nearby

Air Quality

  Air Quality AQ Index Pollutant
Not available.

Snow Depth

Station Depth Elevation

Earthquake Activity

City Distance Mag. Time & Date
Minimum magnitude displayed is 2.5.

Coastal Water Temperatures

Place Temperature

Stations

Nearby Weather Stations

Station Location Temp. Windchill Dew Point Humidity Wind Precip. Elev Updated Type
                   

Watches & Warnings

There are currently no watches in effect.